LEPP/PNA METAR and TAF weather

Enter ICAO airport designator
Station Type Date Time Source
LEPP METAR 2022/01/29 00:00 UTC NOAA

LEPP 290000Z AUTO VRB02KT CAVOK M01/M02 Q1034


Station Type Date Time Source
LEPP Decoded METAR 2022/01/29 00:00 UTC NOAA

Pamplona / Noain, Spain (LEPP) 42-46N 001-38W 453M
Jan 28, 2022 - 07:00 PM EST / 2022.01.29 0000 UTC
Wind: Variable at 2 MPH (2 KT):0
Visibility: greater than 7 mile(s):0
Temperature: 30 F (-1 C)
Dew Point: 28 F (-2 C)
Relative Humidity: 92%
Pressure (altimeter): 30.53 in. Hg (1034 hPa)
ob: LEPP 290000Z AUTO VRB02KT CAVOK M01/M02 Q1034
cycle: 0

Station Type Date Time Source
LEPP TAF 2022/01/28 21:28 UTC NOAA

TAF LEPP 282000Z 2821/2921 32008KT CAVOK TX12/2914Z TNM03/2906Z

Example: see airport list